Time;durP1;ratioP1;P1;durP2;ratioP2;P2;SDS_P1;SDS_P2;PMS_P1;PMS_P2;Temp;Humidity;BMP_temperature;BMP_pressure;BME280_temperature;BME280_humidity;BME280_pressure;Samples;Min_cycle;Max_cycle;Signal;HPM_P1;HPM_P2
2022/07/18 00:00:58;;;;;;;2.30;1.00;;;;;;;12.13;64.71;97632.13;108789;1264;22608;-81
2022/07/18 00:03:29;;;;;;;2.30;0.90;;;;;;;12.14;64.67;97636.17;108768;1264;22557;-81
2022/07/18 00:06:07;;;;;;;2.30;1.00;;;;;;;12.13;64.85;97637.77;108582;1264;114912;-80
2022/07/18 00:08:48;;;;;;;5.90;1.30;;;;;;;12.15;64.93;97628.98;108905;1263;23759;-81
2022/07/18 00:11:20;;;;;;;2.30;1.30;;;;;;;12.16;64.86;97631.48;108894;1262;25867;-81
2022/07/18 00:13:55;;;;;;;3.10;1.30;;;;;;;12.17;64.74;97630.58;108886;1264;22531;-81
2022/07/18 00:16:28;;;;;;;3.60;1.20;;;;;;;12.23;64.63;97632.50;108653;1264;105890;-80
2022/07/18 00:19:00;;;;;;;2.70;1.30;;;;;;;12.24;64.61;97630.69;108867;1264;22563;-80
2022/07/18 00:21:37;;;;;;;3.60;1.30;;;;;;;12.19;64.62;97634.46;108891;1264;24804;-80
2022/07/18 00:24:14;;;;;;;2.60;1.10;;;;;;;12.20;64.67;97634.56;108803;1264;22570;-80
2022/07/18 00:26:57;;;;;;;3.80;1.60;;;;;;;12.19;64.61;97635.36;108695;1264;88763;-80
2022/07/18 00:29:36;;;;;;;4.40;1.60;;;;;;;12.18;64.61;97636.43;108861;1264;22570;-80
2022/07/18 00:32:12;;;;;;;1.80;0.90;;;;;;;12.12;64.65;97634.41;108911;1264;22557;-81
2022/07/18 00:34:46;;;;;;;3.20;1.30;;;;;;;12.09;64.76;97633.85;108885;1264;22971;-81
2022/07/18 00:37:23;;;;;;;3.50;1.10;;;;;;;12.08;64.71;97638.15;108677;1264;99848;-80
2022/07/18 00:39:58;;;;;;;2.30;0.90;;;;;;;12.08;64.82;97638.15;108880;1264;22601;-81
2022/07/18 00:42:29;;;;;;;3.10;1.10;;;;;;;12.07;64.87;97635.70;108871;1264;22639;-81
2022/07/18 00:45:09;;;;;;;5.40;1.10;;;;;;;12.03;65.02;97640.91;108878;1264;23255;-81
2022/07/18 00:47:40;;;;;;;1.70;1.20;;;;;;;12.03;65.12;97635.12;108840;1263;23839;-81
2022/07/18 00:50:18;;;;;;;4.90;1.20;;;;;;;12.03;65.28;97639.64;108860;1264;22533;-81
2022/07/18 00:53:00;;;;;;;3.10;1.00;;;;;;;12.02;65.27;97643.30;108831;1264;22537;-81
2022/07/18 00:55:38;;;;;;;2.30;1.00;;;;;;;11.99;65.32;97639.85;108642;1263;90807;-81
2022/07/18 00:58:11;;;;;;;3.10;1.40;;;;;;;12.01;65.34;97642.83;108881;1263;22549;-81
2022/07/18 01:03:40;;;;;;;2.70;1.30;;;;;;;12.07;65.31;97645.80;108862;1264;25212;-81
2022/07/18 01:06:21;;;;;;;2.40;1.20;;;;;;;12.07;65.14;97641.66;108651;1263;141372;-81
2022/07/18 01:08:52;;;;;;;3.80;1.30;;;;;;;12.09;65.31;97640.59;108769;1264;22552;-81
2022/07/18 01:11:25;;;;;;;3.00;1.20;;;;;;;12.09;65.29;97638.10;108819;1264;22556;-81
2022/07/18 01:14:00;;;;;;;4.10;1.20;;;;;;;12.08;65.19;97635.48;108850;1264;22522;-81
2022/07/18 01:16:40;;;;;;;3.50;1.70;;;;;;;12.07;65.35;97635.98;108656;1264;103166;-81
2022/07/18 01:19:14;;;;;;;3.00;1.10;;;;;;;12.12;65.34;97637.00;108880;1264;23323;-81
2022/07/18 01:21:53;;;;;;;2.50;1.40;;;;;;;12.13;65.29;97637.33;108857;1263;23843;-81
2022/07/18 01:24:36;;;;;;;4.00;1.40;;;;;;;12.10;65.28;97632.64;108850;1264;22761;-81
2022/07/18 01:27:14;;;;;;;4.90;1.20;;;;;;;12.10;65.39;97628.16;104682;1264;5038857;-81
2022/07/18 01:29:46;;;;;;;3.00;1.50;;;;;;;12.06;65.34;97623.27;108933;1264;22535;-81
2022/07/18 01:32:21;;;;;;;2.50;1.20;;;;;;;12.04;65.43;97618.48;108844;1264;22538;-81
2022/07/18 01:34:55;;;;;;;2.60;1.30;;;;;;;12.05;65.39;97617.31;108913;1264;26563;-81
2022/07/18 01:37:40;;;;;;;2.70;1.10;;;;;;;12.03;65.44;97614.44;108662;1264;85147;-81
2022/07/18 01:40:20;;;;;;;1.90;1.00;;;;;;;12.06;65.39;97614.55;108867;1264;22534;-81
2022/07/18 01:42:59;;;;;;;1.80;1.00;;;;;;;12.10;65.44;97614.35;108873;1263;22934;-82
2022/07/18 01:45:33;;;;;;;2.80;1.50;;;;;;;12.16;65.27;97611.81;108727;1264;81097;-81
2022/07/18 01:48:04;;;;;;;1.70;1.10;;;;;;;12.17;65.21;97609.32;108878;1264;22527;-81
2022/07/18 01:50:39;;;;;;;2.00;1.10;;;;;;;12.17;65.11;97604.47;108902;1264;23265;-81
2022/07/18 01:53:13;;;;;;;2.60;1.10;;;;;;;12.19;65.20;97598.98;108868;1264;22538;-81
2022/07/18 01:55:45;;;;;;;2.00;0.90;;;;;;;12.22;65.20;97599.69;108644;1263;140970;-81
2022/07/18 01:58:19;;;;;;;3.30;0.90;;;;;;;12.26;65.00;97596.99;108867;1264;22599;-81
2022/07/18 02:00:58;;;;;;;2.80;1.10;;;;;;;12.32;64.81;97593.65;108874;1264;22618;-82
2022/07/18 02:03:31;;;;;;;5.10;1.20;;;;;;;12.40;64.66;97597.75;108880;1264;25439;-81
2022/07/18 02:06:03;;;;;;;3.80;1.10;;;;;;;12.43;64.49;97591.95;107636;1264;1354949;-81
2022/07/18 02:08:38;;;;;;;4.20;1.30;;;;;;;12.48;64.39;97591.73;108814;1264;22617;-81
2022/07/18 02:11:12;;;;;;;2.90;1.20;;;;;;;12.53;64.17;97591.94;108776;1264;26429;-81
2022/07/18 02:13:47;;;;;;;3.50;1.20;;;;;;;12.55;64.16;97593.35;108799;1264;22540;-82
2022/07/18 02:16:25;;;;;;;2.10;1.30;;;;;;;12.58;64.01;97594.03;107402;1264;1768430;-82
2022/07/18 02:19:01;;;;;;;4.00;1.00;;;;;;;12.62;63.85;97594.29;108870;1264;22545;-82
2022/07/18 02:21:32;;;;;;;2.70;1.10;;;;;;;12.61;63.73;97592.59;108793;1264;23603;-82
2022/07/18 02:24:08;;;;;;;2.70;1.20;;;;;;;12.67;63.68;97593.07;108871;1264;22690;-81
2022/07/18 02:26:42;;;;;;;4.60;1.20;;;;;;;12.67;63.51;97589.94;107273;1264;1948883;-81
2022/07/18 02:29:21;;;;;;;1.80;0.90;;;;;;;12.65;63.35;97592.52;108843;1262;22677;-81
2022/07/18 02:31:55;;;;;;;2.60;1.30;;;;;;;12.62;63.36;97593.48;108818;1264;26644;-81
2022/07/18 02:34:29;;;;;;;2.10;1.10;;;;;;;12.58;63.38;97589.77;108834;1264;22551;-81
2022/07/18 02:37:08;;;;;;;1.90;1.20;;;;;;;12.55;63.39;97589.52;108664;1264;84331;-81
2022/07/18 02:39:40;;;;;;;2.40;0.80;;;;;;;12.50;63.38;97589.07;108787;1264;22544;-81
2022/07/18 02:42:14;;;;;;;3.50;1.60;;;;;;;12.47;63.40;97591.41;108838;1264;24438;-82
2022/07/18 02:44:54;;;;;;;3.70;1.20;;;;;;;12.45;63.37;97589.94;108867;1263;23362;-82
2022/07/18 02:47:26;;;;;;;3.20;1.00;;;;;;;12.42;63.51;97595.20;108647;1264;80178;-82
2022/07/18 02:50:03;;;;;;;2.30;1.10;;;;;;;12.39;63.44;97596.64;108868;1264;24194;-81
2022/07/18 02:52:39;;;;;;;4.70;1.30;;;;;;;12.38;63.59;97599.70;108808;1264;22583;-81
2022/07/18 02:55:14;;;;;;;1.30;0.90;;;;;;;12.41;63.60;97594.83;108673;1264;71366;-81
2022/07/18 02:57:52;;;;;;;4.10;1.20;;;;;;;12.44;63.60;97603.70;108763;1264;22586;-81
2022/07/18 03:00:30;;;;;;;3.00;1.10;;;;;;;12.48;63.55;97604.97;108785;1263;22855;-82
2022/07/18 03:03:05;;;;;;;2.40;1.20;;;;;;;12.54;63.45;97602.55;108773;1264;25244;-81
2022/07/18 03:05:37;;;;;;;2.20;1.20;;;;;;;12.55;63.48;97602.39;108586;1264;71962;-81
2022/07/18 03:08:15;;;;;;;2.20;0.90;;;;;;;12.55;63.46;97605.52;108819;1264;22635;-82
2022/07/18 03:10:47;;;;;;;3.30;1.30;;;;;;;12.56;63.42;97601.27;108820;1264;22548;-82
2022/07/18 03:13:21;;;;;;;2.30;0.90;;;;;;;12.54;63.44;97606.17;108771;1263;22710;-81
2022/07/18 03:15:54;;;;;;;4.40;1.50;;;;;;;12.53;63.46;97608.55;108580;1264;106900;-81
2022/07/18 03:18:27;;;;;;;4.00;1.20;;;;;;;12.54;63.44;97606.70;108773;1264;24385;-82
2022/07/18 03:21:00;;;;;;;3.50;1.00;;;;;;;12.50;63.48;97603.96;108782;1264;24283;-82
2022/07/18 03:23:32;;;;;;;3.50;1.20;;;;;;;12.48;63.57;97603.75;108788;1264;25543;-82
2022/07/18 03:26:05;;;;;;;5.60;1.40;;;;;;;12.49;63.52;97601.84;106708;1263;2545859;-82
2022/07/18 03:28:41;;;;;;;3.10;1.10;;;;;;;12.49;63.70;97602.10;108774;1264;22558;-82
2022/07/18 03:31:13;;;;;;;4.00;1.50;;;;;;;12.55;63.78;97604.41;108786;1264;24369;-82
2022/07/18 03:33:49;;;;;;;1.80;0.90;;;;;;;12.59;63.68;97607.33;108787;1264;22617;-82
2022/07/18 03:36:30;;;;;;;3.70;1.10;;;;;;;12.66;63.69;97609.40;108534;1264;103258;-82
2022/07/18 03:39:02;;;;;;;2.80;1.20;;;;;;;12.73;63.65;97615.30;108774;1264;22654;-82
2022/07/18 03:41:35;;;;;;;3.70;1.50;;;;;;;12.79;63.70;97615.61;108760;1264;24326;-82
2022/07/18 03:44:07;;;;;;;3.30;1.00;;;;;;;12.83;63.65;97619.08;108757;1264;22672;-82
2022/07/18 03:46:43;;;;;;;3.80;1.10;;;;;;;12.89;63.64;97618.70;108494;1264;132904;-82
2022/07/18 03:49:17;;;;;;;4.70;1.70;;;;;;;12.94;63.46;97617.20;108794;1264;22549;-82
2022/07/18 03:51:51;;;;;;;2.80;1.20;;;;;;;12.99;63.49;97611.72;108794;1264;23795;-82
2022/07/18 03:54:22;;;;;;;1.80;0.90;;;;;;;12.99;63.57;97618.74;108747;1264;24145;-81
2022/07/18 03:56:56;;;;;;;2.10;1.00;;;;;;;12.98;63.50;97617.15;108577;1264;103221;-81
2022/07/18 03:59:33;;;;;;;2.80;1.30;;;;;;;12.96;63.52;97619.82;108760;1264;24317;-81
2022/07/18 04:02:07;;;;;;;2.50;1.20;;;;;;;12.94;63.53;97620.87;108762;1264;22528;-81
2022/07/18 04:04:53;;;;;;;4.30;1.50;;;;;;;12.91;63.66;97627.42;108775;1264;22561;-81
2022/07/18 04:07:27;;;;;;;2.50;1.00;;;;;;;12.90;63.88;97625.61;108635;1264;84460;-82
2022/07/18 04:10:04;;;;;;;2.40;0.90;;;;;;;12.85;63.73;97625.79;108827;1264;25252;-82
2022/07/18 04:12:48;;;;;;;2.10;0.90;;;;;;;12.81;63.82;97623.23;108844;1264;24297;-82
2022/07/18 04:15:24;;;;;;;3.20;1.40;;;;;;;12.79;64.09;97620.98;108614;1264;105114;-81
2022/07/18 04:18:00;;;;;;;3.20;1.20;;;;;;;12.81;64.22;97625.36;108766;1264;22541;-82
2022/07/18 04:20:34;;;;;;;2.80;1.20;;;;;;;12.79;64.22;97629.88;108754;1264;22558;-82
2022/07/18 04:23:10;;;;;;;2.80;1.20;;;;;;;12.81;64.22;97631.90;108739;1264;23276;-82
2022/07/18 04:25:43;;;;;;;1.60;1.00;;;;;;;12.85;64.33;97630.79;108481;1264;167515;-82
2022/07/18 04:28:22;;;;;;;2.40;1.20;;;;;;;12.87;64.26;97633.87;108776;1264;22649;-82
2022/07/18 04:31:03;;;;;;;4.00;1.10;;;;;;;12.93;64.24;97633.22;108777;1264;22535;-82
2022/07/18 04:33:35;;;;;;;2.90;1.00;;;;;;;12.98;64.23;97632.90;108757;1264;23334;-82
2022/07/18 04:36:07;;;;;;;3.20;1.20;;;;;;;13.05;64.24;97633.63;108569;1264;106403;-82
2022/07/18 04:38:41;;;;;;;3.40;1.20;;;;;;;13.15;64.29;97634.42;108811;1264;22563;-82
2022/07/18 04:41:24;;;;;;;2.30;1.10;;;;;;;13.24;63.98;97636.77;108822;1264;22634;-82
2022/07/18 04:43:59;;;;;;;4.40;1.30;;;;;;;13.35;63.94;97636.85;108822;1264;22656;-82
2022/07/18 04:46:32;;;;;;;1.60;1.10;;;;;;;13.44;63.86;97634.05;108657;1264;67927;-82
2022/07/18 04:49:06;;;;;;;3.30;1.10;;;;;;;13.57;63.68;97637.55;108736;1264;24143;-82
2022/07/18 04:51:37;;;;;;;1.80;1.10;;;;;;;13.65;63.47;97638.35;108845;1264;22514;-81
2022/07/18 04:54:12;;;;;;;3.70;1.40;;;;;;;13.77;63.10;97641.08;108839;1262;22543;-81
2022/07/18 04:56:46;;;;;;;3.40;1.50;;;;;;;13.85;63.03;97641.05;108510;1264;138290;-81
2022/07/18 04:59:17;;;;;;;2.70;1.20;;;;;;;13.95;62.92;97639.84;108687;1264;22551;-81
2022/07/18 05:01:51;;;;;;;2.20;1.10;;;;;;;14.10;62.75;97647.39;108766;1264;23360;-82
2022/07/18 05:04:26;;;;;;;2.80;1.20;;;;;;;14.26;62.44;97646.48;108745;1264;22537;-81
2022/07/18 05:07:00;;;;;;;3.00;1.10;;;;;;;14.49;62.34;97647.86;106695;1264;2472942;-82
2022/07/18 05:09:34;;;;;;;4.00;1.70;;;;;;;14.74;61.77;97638.45;108794;1264;22552;-81
2022/07/18 05:12:12;;;;;;;2.70;1.30;;;;;;;15.14;61.53;97639.85;108772;1264;24286;-81
2022/07/18 05:14:47;;;;;;;3.70;1.70;;;;;;;16.59;61.23;97639.77;108685;1264;22520;-82
2022/07/18 05:17:25;;;;;;;2.50;1.30;;;;;;;19.05;57.93;97640.87;108588;1263;91341;-82
2022/07/18 05:19:59;;;;;;;3.40;1.40;;;;;;;21.37;53.58;97638.09;108712;1264;22551;-83
2022/07/18 05:22:33;;;;;;;2.80;1.40;;;;;;;23.00;49.90;97635.33;108673;1265;22559;-82
2022/07/18 05:25:13;;;;;;;2.10;1.30;;;;;;;24.07;47.20;97630.95;108790;1264;25363;-83
2022/07/18 05:27:47;;;;;;;2.70;1.60;;;;;;;25.09;45.77;97630.44;108741;1264;22571;-83
2022/07/18 05:30:25;;;;;;;3.10;1.20;;;;;;;26.11;43.39;97626.84;108710;1264;22672;-83
2022/07/18 05:32:58;;;;;;;2.10;1.20;;;;;;;26.58;41.69;97630.19;108800;1264;24227;-83
2022/07/18 05:35:34;;;;;;;3.00;1.40;;;;;;;27.32;40.28;97628.34;108566;1264;107460;-83
2022/07/18 05:38:09;;;;;;;3.60;1.10;;;;;;;27.90;37.67;97627.28;108516;1266;24229;-83
2022/07/18 05:40:40;;;;;;;2.00;1.20;;;;;;;27.69;36.79;97627.27;108779;1264;22545;-83
2022/07/18 05:43:16;;;;;;;2.80;1.10;;;;;;;27.11;36.85;97626.55;108754;1264;22570;-83
2022/07/18 05:45:52;;;;;;;2.20;0.90;;;;;;;26.76;36.98;97628.84;104445;1264;5247561;-83
2022/07/18 05:48:24;;;;;;;2.80;1.10;;;;;;;26.90;36.49;97628.08;108752;1264;24136;-83
2022/07/18 05:50:57;;;;;;;2.90;1.20;;;;;;;26.18;36.26;97625.90;108773;1265;22510;-83
2022/07/18 05:53:32;;;;;;;2.30;1.20;;;;;;;25.43;37.04;97622.75;108796;1264;22536;-82
2022/07/18 05:56:05;;;;;;;3.60;1.30;;;;;;;25.70;36.79;97618.83;107302;1264;1821022;-83
2022/07/18 05:58:36;;;;;;;1.70;1.10;;;;;;;26.23;36.87;97617.15;108834;1265;22574;-83
2022/07/18 06:01:12;;;;;;;2.70;1.10;;;;;;;26.64;36.14;97618.50;108821;1264;22777;-83
2022/07/18 06:03:57;;;;;;;2.10;1.00;;;;;;;27.05;35.53;97617.13;108814;1265;22575;-81
2022/07/18 06:06:29;;;;;;;2.60;1.10;;;;;;;27.36;34.91;97613.31;108602;1263;107067;-83
2022/07/18 06:09:03;;;;;;;2.60;1.10;;;;;;;27.38;34.85;97614.67;108733;1264;22571;-83
2022/07/18 06:11:36;;;;;;;4.10;1.00;;;;;;;27.28;34.67;97617.13;108769;1264;22658;-83
2022/07/18 06:14:07;;;;;;;2.20;1.00;;;;;;;27.51;34.34;97619.39;108791;1265;22600;-82
2022/07/18 06:16:41;;;;;;;2.60;1.00;;;;;;;27.64;34.30;97615.41;108591;1265;88510;-83
2022/07/18 06:19:15;;;;;;;4.20;1.70;;;;;;;28.03;33.89;97616.34;108838;1263;22542;-83
2022/07/18 06:21:47;;;;;;;3.00;0.90;;;;;;;28.56;33.00;97618.70;108830;1265;23850;-83
2022/07/18 06:24:21;;;;;;;3.00;1.10;;;;;;;28.32;32.82;97616.44;108799;1265;22521;-83
2022/07/18 06:26:56;;;;;;;2.30;1.00;;;;;;;28.92;32.92;97617.16;108659;1264;85448;-83
2022/07/18 06:29:31;;;;;;;2.00;1.10;;;;;;;29.80;31.81;97616.65;108798;1265;22715;-83
2022/07/18 06:32:02;;;;;;;1.50;0.90;;;;;;;30.92;31.30;97615.21;108783;1264;23720;-83
2022/07/18 06:34:36;;;;;;;2.10;1.20;;;;;;;31.82;30.52;97613.44;108864;1264;22569;-83
2022/07/18 06:37:08;;;;;;;2.30;1.30;;;;;;;32.65;29.58;97607.76;107328;1265;1808445;-82
2022/07/18 06:39:44;;;;;;;2.60;1.00;;;;;;;33.47;28.69;97607.84;108823;1265;22800;-82
2022/07/18 06:42:17;;;;;;;4.10;1.30;;;;;;;34.21;28.92;97606.37;108845;1265;22536;-82
2022/07/18 06:44:49;;;;;;;3.20;1.30;;;;;;;35.29;27.87;97606.09;108812;1263;22587;-82
2022/07/18 06:47:26;;;;;;;1.90;1.30;;;;;;;36.07;26.90;97601.73;108618;1265;136398;-82
2022/07/18 06:50:01;;;;;;;3.20;1.20;;;;;;;36.50;26.05;97605.65;108815;1265;22522;-83
2022/07/18 06:52:33;;;;;;;3.00;1.40;;;;;;;36.76;25.40;97597.69;108832;1265;23835;-83
2022/07/18 06:55:05;;;;;;;3.40;1.20;;;;;;;36.80;24.32;97597.85;108846;1265;22535;-82
2022/07/18 06:57:40;;;;;;;4.00;1.30;;;;;;;35.29;22.74;97598.66;108790;1265;22891;-82
2022/07/18 07:00:15;;;;;;;2.30;1.10;;;;;;;33.51;25.26;97596.88;108765;1264;22541;-82
2022/07/18 07:02:52;;;;;;;3.80;1.50;;;;;;;33.45;25.95;97592.07;108862;1265;22529;-82
2022/07/18 07:05:24;;;;;;;1.50;1.10;;;;;;;32.87;24.93;97586.47;108612;1265;176381;-82
2022/07/18 07:08:01;;;;;;;1.80;0.80;;;;;;;32.19;24.66;97591.28;108734;1265;25394;-82
2022/07/18 07:10:35;;;;;;;2.20;1.20;;;;;;;31.43;25.05;97596.75;108791;1265;22537;-82
2022/07/18 07:13:10;;;;;;;3.10;1.40;;;;;;;31.31;26.14;97592.91;108763;1265;23481;-82
2022/07/18 07:15:46;;;;;;;3.40;0.90;;;;;;;31.11;26.49;97592.48;106393;1265;3004162;-81
2022/07/18 07:18:23;;;;;;;3.30;1.20;;;;;;;30.18;25.79;97591.58;108737;1265;22564;-81
2022/07/18 07:20:55;;;;;;;2.80;1.10;;;;;;;28.23;26.32;97594.77;108770;1264;22694;-83
2022/07/18 07:23:29;;;;;;;3.00;1.20;;;;;;;26.60;27.93;97592.69;108761;1264;22626;-83
2022/07/18 07:26:04;;;;;;;3.70;1.00;;;;;;;25.69;29.19;97588.55;108599;1264;85798;-82
2022/07/18 07:28:41;;;;;;;4.90;1.30;;;;;;;25.52;29.57;97590.45;108749;1265;22558;-83
2022/07/18 07:31:17;;;;;;;2.50;1.00;;;;;;;25.37;29.93;97588.09;108750;1264;22983;-83
2022/07/18 07:33:50;;;;;;;4.70;1.10;;;;;;;26.10;30.47;97594.97;108750;1264;22773;-83
2022/07/18 07:36:55;;;;;;;1.90;0.90;;;;;;;28.68;30.26;97595.00;108267;1265;103988;-81
2022/07/18 07:39:28;;;;;;;1.50;0.80;;;;;;;28.83;27.86;97598.23;108721;1265;22562;-83
2022/07/18 07:41:59;;;;;;;2.80;1.20;;;;;;;27.60;28.32;97603.67;108761;1265;22657;-83
2022/07/18 07:44:33;;;;;;;1.60;1.10;;;;;;;27.08;29.28;97605.11;108763;1265;22882;-83
2022/07/18 07:47:08;;;;;;;5.40;0.90;;;;;;;25.78;29.73;97602.46;108575;1264;93271;-82
2022/07/18 07:49:41;;;;;;;4.40;1.10;;;;;;;25.55;30.42;97606.28;108814;1265;22538;-82
2022/07/18 07:52:17;;;;;;;3.50;1.30;;;;;;;26.71;30.24;97610.70;108815;1265;22551;-82
2022/07/18 07:54:49;;;;;;;2.00;1.10;;;;;;;26.53;29.74;97607.99;108838;1265;25244;-82
2022/07/18 07:57:24;;;;;;;3.30;1.10;;;;;;;26.24;30.32;97611.36;107357;1265;1774380;-82
2022/07/18 07:59:55;;;;;;;3.50;1.00;;;;;;;27.14;29.72;97610.86;108853;1265;22634;-83
2022/07/18 08:02:30;;;;;;;3.10;1.40;;;;;;;29.65;28.63;97604.98;108809;1264;25155;-83
2022/07/18 08:05:05;;;;;;;2.90;1.00;;;;;;;31.30;26.45;97611.38;108784;1265;22759;-82
2022/07/18 08:07:44;;;;;;;2.30;1.10;;;;;;;33.22;25.37;97610.70;108827;1265;22500;-81
2022/07/18 08:10:21;;;;;;;1.60;0.90;;;;;;;34.74;24.36;97608.96;108798;1265;23054;-82
2022/07/18 08:12:58;;;;;;;4.40;1.30;;;;;;;35.43;23.16;97610.55;108796;1264;24221;-82
2022/07/18 08:15:31;;;;;;;2.60;1.00;;;;;;;36.78;24.57;97616.38;108680;1265;65577;-84
2022/07/18 08:18:04;;;;;;;2.90;1.00;;;;;;;39.06;23.30;97611.35;108828;1265;22670;-84
2022/07/18 08:20:40;;;;;;;2.80;1.10;;;;;;;40.03;21.23;97614.67;108824;1264;23143;-85
2022/07/18 08:23:14;;;;;;;1.70;0.90;;;;;;;40.46;20.55;97622.15;108804;1265;22549;-85
2022/07/18 08:25:49;;;;;;;2.00;1.10;;;;;;;38.81;17.84;97617.53;107236;1265;1955374;-84
2022/07/18 08:28:21;;;;;;;2.30;1.00;;;;;;;36.40;19.10;97619.94;108770;1265;22751;-85
2022/07/18 08:30:53;;;;;;;2.30;1.00;;;;;;;35.83;20.41;97617.31;108727;1265;22533;-85
2022/07/18 08:33:27;;;;;;;2.40;1.10;;;;;;;35.22;20.25;97612.59;108764;1263;22552;-84
2022/07/18 08:35:58;;;;;;;1.60;0.90;;;;;;;35.18;20.94;97607.06;108599;1265;90546;-84
2022/07/18 08:38:34;;;;;;;2.50;1.00;;;;;;;35.94;21.05;97609.05;108795;1265;22583;-85
2022/07/18 08:41:09;;;;;;;1.90;1.10;;;;;;;37.41;20.46;97598.84;108722;1265;27085;-84
2022/07/18 08:43:47;;;;;;;2.20;1.10;;;;;;;38.45;21.22;97600.30;108797;1265;25244;-85
2022/07/18 08:46:24;;;;;;;2.00;0.90;;;;;;;38.44;18.51;97596.02;108642;1264;101402;-84
2022/07/18 08:48:58;;;;;;;2.40;1.20;;;;;;;36.19;19.34;97596.61;108837;1264;22532;-84
2022/07/18 08:51:31;;;;;;;1.80;1.00;;;;;;;35.81;20.63;97595.80;108845;1264;22648;-84
2022/07/18 08:54:03;;;;;;;2.40;1.20;;;;;;;36.21;20.25;97590.52;108840;1264;24231;-84
2022/07/18 08:56:37;;;;;;;3.50;1.30;;;;;;;36.39;20.38;97585.91;108613;1264;139564;-84
2022/07/18 08:59:09;;;;;;;1.90;1.00;;;;;;;37.10;20.27;97583.85;108869;1264;24269;-84
2022/07/18 09:01:41;;;;;;;1.60;1.00;;;;;;;37.49;20.28;97579.90;108841;1264;24151;-82
2022/07/18 09:04:16;;;;;;;3.20;1.30;;;;;;;38.39;20.46;97580.54;108846;1264;24019;-81
2022/07/18 09:06:52;;;;;;;2.40;1.20;;;;;;;37.91;19.07;97576.91;108632;1264;74704;-82
2022/07/18 09:09:23;;;;;;;3.30;1.30;;;;;;;34.08;20.43;97578.09;108810;1265;24249;-81
2022/07/18 09:11:57;;;;;;;3.00;1.40;;;;;;;32.06;23.10;97575.23;108818;1265;22554;-81
2022/07/18 09:14:38;;;;;;;2.70;1.00;;;;;;;31.40;24.24;97574.21;108796;1263;22814;-83
2022/07/18 09:17:14;;;;;;;2.50;1.20;;;;;;;30.09;24.09;97575.11;108680;1264;90697;-83
2022/07/18 09:20:08;;;;;;;4.30;1.60;;;;;;;28.24;25.43;97574.66;108921;1264;23087;-83
2022/07/18 09:22:43;;;;;;;2.70;1.40;;;;;;;26.69;27.38;97574.54;108783;1264;24220;-83
2022/07/18 09:25:16;;;;;;;2.60;1.40;;;;;;;26.56;28.97;97572.43;108674;1264;91906;-83
2022/07/18 09:27:52;;;;;;;2.30;1.10;;;;;;;26.60;28.53;97572.80;108833;1264;22547;-83
2022/07/18 09:30:32;;;;;;;3.20;1.40;;;;;;;26.04;28.85;97567.69;108798;1264;24237;-83
2022/07/18 09:33:17;;;;;;;2.60;1.10;;;;;;;26.17;30.08;97565.23;108887;1264;22553;-83
2022/07/18 09:35:54;;;;;;;2.50;1.20;;;;;;;26.18;30.70;97569.06;103726;1264;4534738;-82
2022/07/18 09:38:33;;;;;;;3.70;1.10;;;;;;;26.33;30.46;97570.30;108794;1264;22528;-83
2022/07/18 09:41:13;;;;;;;2.40;1.00;;;;;;;26.56;30.61;97566.44;108816;1264;22743;-82
2022/07/18 09:43:52;;;;;;;3.10;1.10;;;;;;;26.61;30.88;97561.49;108779;1264;25213;-82
2022/07/18 09:46:30;;;;;;;3.50;1.20;;;;;;;26.40;30.50;97575.48;108619;1264;97733;-82
2022/07/18 09:49:16;;;;;;;3.80;1.30;;;;;;;26.36;31.43;97571.70;108833;1264;25357;-82
2022/07/18 09:52:10;;;;;;;3.30;1.50;;;;;;;26.56;31.31;97573.81;108845;1264;24338;-82
2022/07/18 09:54:47;;;;;;;4.70;1.30;;;;;;;26.69;31.30;97568.47;108854;1264;22688;-82
2022/07/18 09:57:30;;;;;;;4.40;1.70;;;;;;;26.56;30.61;97571.02;108542;1264;95157;-82
2022/07/18 10:00:06;;;;;;;4.10;1.10;;;;;;;26.06;31.47;97572.84;108777;1264;23030;-82
2022/07/18 10:02:39;;;;;;;3.20;1.30;;;;;;;26.07;31.99;97573.34;108822;1264;25273;-82
2022/07/18 10:05:12;;;;;;;2.00;0.90;;;;;;;26.26;32.19;97568.14;108587;1264;77903;-82
2022/07/18 10:07:47;;;;;;;3.70;1.60;;;;;;;26.09;31.55;97555.12;108816;1263;22552;-82
2022/07/18 10:10:24;;;;;;;2.60;1.40;;;;;;;25.68;31.11;97564.92;108828;1262;25260;-81
2022/07/18 10:13:05;;;;;;;3.40;1.00;;;;;;;25.33;31.51;97564.48;108819;1264;22900;-81
2022/07/18 10:15:50;;;;;;;1.60;0.90;;;;;;;25.11;31.52;97565.71;106101;1264;3461579;-81
2022/07/18 10:18:26;;;;;;;2.40;1.30;;;;;;;25.03;32.63;97567.69;108857;1264;22622;-81
2022/07/18 10:21:08;;;;;;;4.60;1.60;;;;;;;25.14;32.42;97559.82;108847;1264;22524;-81
2022/07/18 10:23:48;;;;;;;2.60;1.00;;;;;;;25.31;33.01;97560.48;108801;1264;25300;-81
2022/07/18 10:26:26;;;;;;;4.10;1.30;;;;;;;25.39;32.24;97553.30;108652;1264;80534;-81
2022/07/18 10:29:19;;;;;;;2.90;1.30;;;;;;;25.46;32.82;97552.67;108846;1264;22562;-82
2022/07/18 10:32:08;;;;;;;2.80;1.10;;;;;;;25.53;32.41;97553.23;108751;1264;22653;-82
2022/07/18 10:34:45;;;;;;;4.40;1.40;;;;;;;25.22;32.26;97554.80;108825;1264;22615;-82
2022/07/18 10:37:33;;;;;;;4.00;1.40;;;;;;;25.27;32.60;97558.28;108634;1264;123856;-81
2022/07/18 10:40:28;;;;;;;4.50;1.40;;;;;;;25.06;31.45;97555.02;108839;1264;22594;-82
2022/07/18 10:43:39;;;;;;;2.80;1.20;;;;;;;24.80;32.26;97554.77;108743;1264;22545;-82
2022/07/18 10:46:15;;;;;;;2.10;1.10;;;;;;;25.05;32.48;97556.13;108739;1264;65803;-82
2022/07/18 10:49:06;;;;;;;3.00;1.10;;;;;;;25.08;31.96;97547.65;108836;1264;22529;-82
2022/07/18 10:51:36;;;;;;;;;;;;;;;25.10;31.65;97547.38;108862;1264;22637;-81
2022/07/18 10:54:17;;;;;;;2.00;1.10;;;;;;;24.91;31.57;97545.42;108811;1263;22517;-81
2022/07/18 10:57:15;;;;;;;2.60;0.90;;;;;;;24.50;31.80;97540.63;107025;1263;2222071;-82
2022/07/18 11:00:08;;;;;;;3.40;1.20;;;;;;;24.09;32.31;97542.05;108641;1264;266904;-81
2022/07/18 11:02:42;;;;;;;1.30;1.00;;;;;;;24.17;32.71;97542.91;108851;1264;22594;-81
2022/07/18 11:05:45;;;;;;;2.90;1.10;;;;;;;24.40;33.59;97542.80;108617;1263;113000;-81
2022/07/18 11:08:28;;;;;;;3.70;1.40;;;;;;;24.77;33.89;97541.73;108678;1265;22560;-81
2022/07/18 11:11:15;;;;;;;2.60;1.00;;;;;;;24.95;32.64;97534.52;108744;1264;22515;-81
2022/07/18 11:13:54;;;;;;;2.80;1.10;;;;;;;24.81;33.25;97536.50;108773;1264;22541;-82
2022/07/18 11:16:35;;;;;;;2.30;1.00;;;;;;;24.98;32.82;97525.90;108564;1264;91561;-81
2022/07/18 11:19:29;;;;;;;3.20;1.10;;;;;;;24.91;33.78;97525.80;108792;1264;22526;-81
2022/07/18 11:22:04;;;;;;;3.50;1.20;;;;;;;24.91;32.46;97525.88;108818;1264;25267;-81
2022/07/18 11:24:40;;;;;;;4.00;1.10;;;;;;;24.49;32.60;97530.60;108700;1264;22619;-81
2022/07/18 11:27:20;;;;;;;3.00;1.30;;;;;;;24.41;33.27;97521.95;108655;1264;79076;-81
2022/07/18 11:29:56;;;;;;;2.80;1.40;;;;;;;24.36;33.34;97526.37;108765;1264;22552;-81
2022/07/18 11:32:27;;;;;;;3.20;1.10;;;;;;;24.40;33.17;97526.27;108763;1264;22572;-81
2022/07/18 11:35:00;;;;;;;4.80;1.10;;;;;;;24.46;34.06;97528.88;108778;1264;22623;-81
2022/07/18 11:37:37;;;;;;;3.20;1.30;;;;;;;24.44;32.76;97528.84;108715;1264;23187;-81
2022/07/18 11:40:13;;;;;;;5.70;1.50;;;;;;;24.22;32.88;97525.96;108770;1264;22560;-82
2022/07/18 11:42:46;;;;;;;3.50;1.50;;;;;;;24.31;34.68;97524.83;108768;1264;22538;-82
2022/07/18 11:45:22;;;;;;;2.70;0.80;;;;;;;24.59;34.26;97520.86;108486;1264;143949;-81
2022/07/18 11:47:55;;;;;;;2.50;1.00;;;;;;;24.68;33.68;97521.11;108789;1264;22540;-82
2022/07/18 11:50:40;;;;;;;3.40;1.30;;;;;;;24.67;34.26;97520.38;108786;1263;22552;-81
2022/07/18 11:53:17;;;;;;;3.60;1.40;;;;;;;24.71;34.04;97520.27;108779;1264;23818;-81
2022/07/18 11:55:53;;;;;;;4.00;1.50;;;;;;;24.70;34.28;97521.70;108649;1262;76109;-81
2022/07/18 11:58:35;;;;;;;2.60;1.30;;;;;;;24.76;34.32;97518.38;108807;1264;22551;-80
2022/07/18 12:01:11;;;;;;;5.00;1.20;;;;;;;24.78;33.53;97520.14;108661;1264;22557;-82
2022/07/18 12:03:46;;;;;;;2.20;1.10;;;;;;;24.58;33.78;97521.85;108851;1263;22514;-81
2022/07/18 12:06:27;;;;;;;3.10;1.10;;;;;;;24.60;34.53;97518.11;107210;1264;2019560;-81
2022/07/18 12:09:03;;;;;;;2.80;1.20;;;;;;;24.79;35.59;97515.75;108794;1263;22756;-82